sensor_id;sensor_type;location;lat;lon;timestamp;P1;durP1;ratioP1;P2;durP2;ratioP2
13706;SDS011;6925;47.816;13.072;2022-08-01T00:02:22;3.50;;;1.95;;
13706;SDS011;6925;47.816;13.072;2022-08-01T00:04:53;3.20;;;2.20;;
13706;SDS011;6925;47.816;13.072;2022-08-01T00:07:20;3.88;;;2.22;;
13706;SDS011;6925;47.816;13.072;2022-08-01T00:09:48;5.13;;;1.90;;
13706;SDS011;6925;47.816;13.072;2022-08-01T00:12:15;3.05;;;1.77;;
13706;SDS011;6925;47.816;13.072;2022-08-01T00:14:43;3.83;;;1.95;;
13706;SDS011;6925;47.816;13.072;2022-08-01T00:17:10;3.00;;;1.73;;
13706;SDS011;6925;47.816;13.072;2022-08-01T00:19:39;3.70;;;1.63;;
13706;SDS011;6925;47.816;13.072;2022-08-01T00:22:07;3.13;;;1.80;;
13706;SDS011;6925;47.816;13.072;2022-08-01T00:24:34;2.53;;;1.60;;
13706;SDS011;6925;47.816;13.072;2022-08-01T00:27:01;4.30;;;1.80;;
13706;SDS011;6925;47.816;13.072;2022-08-01T00:29:29;3.22;;;1.90;;
13706;SDS011;6925;47.816;13.072;2022-08-01T00:31:56;3.80;;;1.77;;
13706;SDS011;6925;47.816;13.072;2022-08-01T00:34:24;3.63;;;1.73;;
13706;SDS011;6925;47.816;13.072;2022-08-01T00:36:52;2.92;;;1.80;;
13706;SDS011;6925;47.816;13.072;2022-08-01T00:39:20;3.10;;;1.92;;
13706;SDS011;6925;47.816;13.072;2022-08-01T00:41:47;2.75;;;1.77;;
13706;SDS011;6925;47.816;13.072;2022-08-01T00:44:15;3.47;;;1.80;;
13706;SDS011;6925;47.816;13.072;2022-08-01T00:46:45;4.50;;;1.80;;
13706;SDS011;6925;47.816;13.072;2022-08-01T00:49:13;4.95;;;1.80;;
13706;SDS011;6925;47.816;13.072;2022-08-01T00:51:48;5.88;;;2.17;;
13706;SDS011;6925;47.816;13.072;2022-08-01T00:54:17;4.25;;;2.10;;
13706;SDS011;6925;47.816;13.072;2022-08-01T00:56:45;3.45;;;1.77;;
13706;SDS011;6925;47.816;13.072;2022-08-01T00:59:12;5.13;;;1.90;;
13706;SDS011;6925;47.816;13.072;2022-08-01T01:01:43;4.22;;;1.80;;
13706;SDS011;6925;47.816;13.072;2022-08-01T01:04:11;3.22;;;1.80;;
13706;SDS011;6925;47.816;13.072;2022-08-01T01:06:41;3.88;;;1.90;;
13706;SDS011;6925;47.816;13.072;2022-08-01T01:09:18;4.13;;;1.90;;
13706;SDS011;6925;47.816;13.072;2022-08-01T01:11:57;4.03;;;2.00;;
13706;SDS011;6925;47.816;13.072;2022-08-01T01:14:38;3.90;;;1.98;;
13706;SDS011;6925;47.816;13.072;2022-08-01T01:17:11;3.10;;;1.83;;
13706;SDS011;6925;47.816;13.072;2022-08-01T01:19:44;3.70;;;1.90;;
13706;SDS011;6925;47.816;13.072;2022-08-01T01:22:32;5.60;;;2.22;;
13706;SDS011;6925;47.816;13.072;2022-08-01T01:25:22;3.75;;;1.92;;
13706;SDS011;6925;47.816;13.072;2022-08-01T01:28:20;4.20;;;1.90;;
13706;SDS011;6925;47.816;13.072;2022-08-01T01:31:00;3.30;;;1.75;;
13706;SDS011;6925;47.816;13.072;2022-08-01T01:33:33;3.08;;;1.52;;
13706;SDS011;6925;47.816;13.072;2022-08-01T01:36:03;3.60;;;1.75;;
13706;SDS011;6925;47.816;13.072;2022-08-01T01:38:36;4.22;;;1.95;;
13706;SDS011;6925;47.816;13.072;2022-08-01T01:41:08;3.88;;;2.00;;
13706;SDS011;6925;47.816;13.072;2022-08-01T01:43:37;5.65;;;1.80;;
13706;SDS011;6925;47.816;13.072;2022-08-01T01:46:07;2.78;;;1.67;;
13706;SDS011;6925;47.816;13.072;2022-08-01T01:48:37;3.22;;;1.92;;
13706;SDS011;6925;47.816;13.072;2022-08-01T01:51:06;4.43;;;1.98;;
13706;SDS011;6925;47.816;13.072;2022-08-01T01:53:34;2.80;;;1.90;;
13706;SDS011;6925;47.816;13.072;2022-08-01T01:56:02;4.43;;;1.80;;
13706;SDS011;6925;47.816;13.072;2022-08-01T01:58:31;2.88;;;1.67;;
13706;SDS011;6925;47.816;13.072;2022-08-01T02:01:00;3.30;;;1.80;;
13706;SDS011;6925;47.816;13.072;2022-08-01T02:03:31;4.32;;;1.98;;
13706;SDS011;6925;47.816;13.072;2022-08-01T02:06:12;3.33;;;1.95;;
13706;SDS011;6925;47.816;13.072;2022-08-01T02:08:42;4.10;;;2.17;;
13706;SDS011;6925;47.816;13.072;2022-08-01T02:11:10;4.22;;;1.83;;
13706;SDS011;6925;47.816;13.072;2022-08-01T02:13:48;3.30;;;2.03;;
13706;SDS011;6925;47.816;13.072;2022-08-01T02:16:21;3.60;;;1.85;;
13706;SDS011;6925;47.816;13.072;2022-08-01T02:18:52;2.80;;;1.90;;
13706;SDS011;6925;47.816;13.072;2022-08-01T02:21:22;4.10;;;1.80;;
13706;SDS011;6925;47.816;13.072;2022-08-01T02:23:53;9.25;;;2.53;;
13706;SDS011;6925;47.816;13.072;2022-08-01T02:26:25;3.42;;;1.95;;
13706;SDS011;6925;47.816;13.072;2022-08-01T02:28:56;3.35;;;1.70;;
13706;SDS011;6925;47.816;13.072;2022-08-01T02:31:28;3.05;;;1.90;;
13706;SDS011;6925;47.816;13.072;2022-08-01T02:34:04;3.80;;;2.30;;
13706;SDS011;6925;47.816;13.072;2022-08-01T02:36:33;4.50;;;2.28;;
13706;SDS011;6925;47.816;13.072;2022-08-01T02:39:03;3.97;;;1.92;;
13706;SDS011;6925;47.816;13.072;2022-08-01T02:41:36;3.60;;;1.90;;
13706;SDS011;6925;47.816;13.072;2022-08-01T02:44:07;4.00;;;2.03;;
13706;SDS011;6925;47.816;13.072;2022-08-01T02:46:43;3.42;;;1.88;;
13706;SDS011;6925;47.816;13.072;2022-08-01T02:49:17;3.97;;;1.95;;
13706;SDS011;6925;47.816;13.072;2022-08-01T02:51:46;2.85;;;1.70;;
13706;SDS011;6925;47.816;13.072;2022-08-01T02:54:16;3.15;;;1.83;;
13706;SDS011;6925;47.816;13.072;2022-08-01T02:56:44;3.50;;;2.00;;
13706;SDS011;6925;47.816;13.072;2022-08-01T02:59:15;4.32;;;2.10;;
13706;SDS011;6925;47.816;13.072;2022-08-01T03:01:45;3.80;;;1.80;;
13706;SDS011;6925;47.816;13.072;2022-08-01T03:04:18;3.80;;;2.45;;
13706;SDS011;6925;47.816;13.072;2022-08-01T03:06:48;3.90;;;1.65;;
13706;SDS011;6925;47.816;13.072;2022-08-01T03:09:16;5.03;;;2.28;;
13706;SDS011;6925;47.816;13.072;2022-08-01T03:11:45;3.03;;;1.88;;
13706;SDS011;6925;47.816;13.072;2022-08-01T03:14:14;5.32;;;1.90;;
13706;SDS011;6925;47.816;13.072;2022-08-01T03:16:44;3.63;;;1.92;;
13706;SDS011;6925;47.816;13.072;2022-08-01T03:19:13;3.38;;;2.00;;
13706;SDS011;6925;47.816;13.072;2022-08-01T03:21:43;4.05;;;2.00;;
13706;SDS011;6925;47.816;13.072;2022-08-01T03:24:12;4.10;;;2.08;;
13706;SDS011;6925;47.816;13.072;2022-08-01T03:26:41;3.78;;;1.95;;
13706;SDS011;6925;47.816;13.072;2022-08-01T03:29:10;4.45;;;2.10;;
13706;SDS011;6925;47.816;13.072;2022-08-01T03:31:40;3.88;;;2.10;;
13706;SDS011;6925;47.816;13.072;2022-08-01T03:34:12;3.20;;;2.08;;
13706;SDS011;6925;47.816;13.072;2022-08-01T03:36:42;4.50;;;2.30;;
13706;SDS011;6925;47.816;13.072;2022-08-01T03:39:13;3.20;;;2.08;;
13706;SDS011;6925;47.816;13.072;2022-08-01T03:41:45;4.85;;;2.10;;
13706;SDS011;6925;47.816;13.072;2022-08-01T03:44:18;3.60;;;1.85;;
13706;SDS011;6925;47.816;13.072;2022-08-01T03:46:52;4.00;;;2.13;;
13706;SDS011;6925;47.816;13.072;2022-08-01T03:49:25;3.42;;;2.22;;
13706;SDS011;6925;47.816;13.072;2022-08-01T03:51:59;3.05;;;1.98;;
13706;SDS011;6925;47.816;13.072;2022-08-01T03:54:33;4.30;;;2.03;;
13706;SDS011;6925;47.816;13.072;2022-08-01T03:57:03;3.33;;;2.10;;
13706;SDS011;6925;47.816;13.072;2022-08-01T03:59:31;3.20;;;2.13;;
13706;SDS011;6925;47.816;13.072;2022-08-01T04:02:01;3.60;;;1.95;;
13706;SDS011;6925;47.816;13.072;2022-08-01T04:04:30;5.57;;;2.22;;
13706;SDS011;6925;47.816;13.072;2022-08-01T04:06:59;4.55;;;2.10;;
13706;SDS011;6925;47.816;13.072;2022-08-01T04:09:31;4.43;;;2.15;;
13706;SDS011;6925;47.816;13.072;2022-08-01T04:11:59;6.20;;;2.20;;
13706;SDS011;6925;47.816;13.072;2022-08-01T04:14:29;4.40;;;2.17;;
13706;SDS011;6925;47.816;13.072;2022-08-01T04:16:59;3.38;;;2.13;;
13706;SDS011;6925;47.816;13.072;2022-08-01T04:19:26;3.40;;;2.13;;
13706;SDS011;6925;47.816;13.072;2022-08-01T04:21:55;4.18;;;2.40;;
13706;SDS011;6925;47.816;13.072;2022-08-01T04:24:29;2.95;;;2.17;;
13706;SDS011;6925;47.816;13.072;2022-08-01T04:27:00;4.35;;;2.15;;
13706;SDS011;6925;47.816;13.072;2022-08-01T04:29:28;3.08;;;2.13;;
13706;SDS011;6925;47.816;13.072;2022-08-01T04:31:57;3.88;;;2.10;;
13706;SDS011;6925;47.816;13.072;2022-08-01T04:34:30;3.70;;;2.35;;
13706;SDS011;6925;47.816;13.072;2022-08-01T04:36:59;3.60;;;2.22;;
13706;SDS011;6925;47.816;13.072;2022-08-01T04:39:30;3.80;;;1.67;;
13706;SDS011;6925;47.816;13.072;2022-08-01T05:19:55;3.38;;;2.17;;
13706;SDS011;6925;47.816;13.072;2022-08-01T05:26:19;4.40;;;2.35;;
13706;SDS011;6925;47.816;13.072;2022-08-01T05:38:48;5.80;;;2.22;;
13706;SDS011;6925;47.816;13.072;2022-08-01T05:41:16;5.32;;;2.08;;
13706;SDS011;6925;47.816;13.072;2022-08-01T06:05:20;3.88;;;2.38;;
13706;SDS011;6925;47.816;13.072;2022-08-01T06:12:02;4.78;;;2.38;;
13706;SDS011;6925;47.816;13.072;2022-08-01T06:18:03;6.30;;;2.60;;
13706;SDS011;6925;47.816;13.072;2022-08-01T06:20:40;6.35;;;2.42;;
13706;SDS011;6925;47.816;13.072;2022-08-01T06:23:34;4.45;;;2.30;;
13706;SDS011;6925;47.816;13.072;2022-08-01T06:26:06;4.78;;;2.10;;
13706;SDS011;6925;47.816;13.072;2022-08-01T06:31:39;5.25;;;2.20;;
13706;SDS011;6925;47.816;13.072;2022-08-01T06:34:06;3.45;;;1.88;;
13706;SDS011;6925;47.816;13.072;2022-08-01T06:36:38;4.03;;;2.10;;
13706;SDS011;6925;47.816;13.072;2022-08-01T06:51:01;4.78;;;2.78;;
13706;SDS011;6925;47.816;13.072;2022-08-01T06:53:47;6.22;;;3.03;;
13706;SDS011;6925;47.816;13.072;2022-08-01T07:03:04;4.20;;;2.22;;
13706;SDS011;6925;47.816;13.072;2022-08-01T07:05:32;5.78;;;2.40;;
13706;SDS011;6925;47.816;13.072;2022-08-01T07:07:59;3.63;;;2.13;;
13706;SDS011;6925;47.816;13.072;2022-08-01T07:10:28;5.28;;;2.47;;
13706;SDS011;6925;47.816;13.072;2022-08-01T07:13:09;4.45;;;2.20;;
13706;SDS011;6925;47.816;13.072;2022-08-01T07:15:41;5.53;;;2.75;;
13706;SDS011;6925;47.816;13.072;2022-08-01T07:18:09;7.30;;;2.90;;
13706;SDS011;6925;47.816;13.072;2022-08-01T07:20:37;3.50;;;2.15;;
13706;SDS011;6925;47.816;13.072;2022-08-01T07:23:04;3.65;;;2.00;;
13706;SDS011;6925;47.816;13.072;2022-08-01T07:25:35;4.43;;;1.90;;
13706;SDS011;6925;47.816;13.072;2022-08-01T07:28:02;4.80;;;1.98;;
13706;SDS011;6925;47.816;13.072;2022-08-01T07:30:30;4.05;;;1.80;;
13706;SDS011;6925;47.816;13.072;2022-08-01T07:32:57;3.67;;;2.58;;
13706;SDS011;6925;47.816;13.072;2022-08-01T07:35:41;4.95;;;2.30;;
13706;SDS011;6925;47.816;13.072;2022-08-01T07:38:44;3.03;;;2.10;;
13706;SDS011;6925;47.816;13.072;2022-08-01T07:41:14;5.03;;;2.58;;
13706;SDS011;6925;47.816;13.072;2022-08-01T07:43:49;3.70;;;2.10;;
13706;SDS011;6925;47.816;13.072;2022-08-01T07:46:16;3.70;;;2.13;;
13706;SDS011;6925;47.816;13.072;2022-08-01T07:48:43;3.75;;;2.20;;
13706;SDS011;6925;47.816;13.072;2022-08-01T07:51:11;3.25;;;2.00;;
13706;SDS011;6925;47.816;13.072;2022-08-01T07:53:38;4.93;;;2.40;;
13706;SDS011;6925;47.816;13.072;2022-08-01T07:56:06;7.72;;;2.13;;
13706;SDS011;6925;47.816;13.072;2022-08-01T07:58:35;3.70;;;2.13;;
13706;SDS011;6925;47.816;13.072;2022-08-01T08:01:02;3.40;;;2.03;;
13706;SDS011;6925;47.816;13.072;2022-08-01T08:03:30;5.25;;;2.17;;
13706;SDS011;6925;47.816;13.072;2022-08-01T08:05:57;4.25;;;1.90;;
13706;SDS011;6925;47.816;13.072;2022-08-01T08:08:24;5.88;;;2.30;;
13706;SDS011;6925;47.816;13.072;2022-08-01T08:10:52;4.05;;;2.00;;
13706;SDS011;6925;47.816;13.072;2022-08-01T08:13:20;4.15;;;2.00;;
13706;SDS011;6925;47.816;13.072;2022-08-01T08:15:49;3.85;;;2.05;;
13706;SDS011;6925;47.816;13.072;2022-08-01T08:18:19;3.40;;;1.92;;
13706;SDS011;6925;47.816;13.072;2022-08-01T08:20:46;4.25;;;1.90;;
13706;SDS011;6925;47.816;13.072;2022-08-01T08:23:14;3.35;;;2.03;;
13706;SDS011;6925;47.816;13.072;2022-08-01T08:25:59;3.38;;;2.20;;
13706;SDS011;6925;47.816;13.072;2022-08-01T08:28:26;2.75;;;1.90;;
13706;SDS011;6925;47.816;13.072;2022-08-01T08:30:55;4.07;;;2.20;;
13706;SDS011;6925;47.816;13.072;2022-08-01T08:33:23;4.32;;;1.98;;
13706;SDS011;6925;47.816;13.072;2022-08-01T08:35:51;4.57;;;2.30;;
13706;SDS011;6925;47.816;13.072;2022-08-01T08:38:19;4.15;;;2.10;;
13706;SDS011;6925;47.816;13.072;2022-08-01T08:41:03;3.10;;;2.00;;
13706;SDS011;6925;47.816;13.072;2022-08-01T08:43:30;3.13;;;2.00;;
13706;SDS011;6925;47.816;13.072;2022-08-01T08:46:00;4.00;;;1.90;;
13706;SDS011;6925;47.816;13.072;2022-08-01T08:51:03;6.05;;;2.00;;
13706;SDS011;6925;47.816;13.072;2022-08-01T08:53:31;5.47;;;2.25;;
13706;SDS011;6925;47.816;13.072;2022-08-01T08:56:00;3.72;;;2.13;;
13706;SDS011;6925;47.816;13.072;2022-08-01T08:58:29;4.97;;;2.10;;
13706;SDS011;6925;47.816;13.072;2022-08-01T09:01:07;4.45;;;2.20;;
13706;SDS011;6925;47.816;13.072;2022-08-01T09:03:35;3.72;;;2.08;;
13706;SDS011;6925;47.816;13.072;2022-08-01T09:06:03;4.22;;;2.25;;
13706;SDS011;6925;47.816;13.072;2022-08-01T09:08:30;3.65;;;2.10;;
13706;SDS011;6925;47.816;13.072;2022-08-01T09:11:03;6.60;;;2.13;;
13706;SDS011;6925;47.816;13.072;2022-08-01T09:13:30;4.53;;;2.13;;
13706;SDS011;6925;47.816;13.072;2022-08-01T09:15:58;4.30;;;2.13;;
13706;SDS011;6925;47.816;13.072;2022-08-01T09:18:28;4.05;;;2.30;;
13706;SDS011;6925;47.816;13.072;2022-08-01T09:23:46;3.13;;;1.90;;
13706;SDS011;6925;47.816;13.072;2022-08-01T09:26:15;3.45;;;2.15;;
13706;SDS011;6925;47.816;13.072;2022-08-01T09:28:44;3.70;;;2.13;;
13706;SDS011;6925;47.816;13.072;2022-08-01T09:34:07;4.03;;;2.08;;
13706;SDS011;6925;47.816;13.072;2022-08-01T09:36:43;3.30;;;2.17;;
13706;SDS011;6925;47.816;13.072;2022-08-01T09:39:16;3.17;;;1.85;;
13706;SDS011;6925;47.816;13.072;2022-08-01T09:41:51;3.13;;;1.90;;
13706;SDS011;6925;47.816;13.072;2022-08-01T09:44:47;3.92;;;1.77;;
13706;SDS011;6925;47.816;13.072;2022-08-01T09:47:16;3.63;;;2.00;;
13706;SDS011;6925;47.816;13.072;2022-08-01T09:49:52;4.35;;;2.08;;
13706;SDS011;6925;47.816;13.072;2022-08-01T09:52:22;3.42;;;1.83;;
13706;SDS011;6925;47.816;13.072;2022-08-01T09:54:53;3.35;;;2.15;;
13706;SDS011;6925;47.816;13.072;2022-08-01T09:57:22;3.95;;;2.03;;
13706;SDS011;6925;47.816;13.072;2022-08-01T09:59:55;4.18;;;2.10;;
13706;SDS011;6925;47.816;13.072;2022-08-01T10:02:27;7.38;;;2.13;;
13706;SDS011;6925;47.816;13.072;2022-08-01T10:04:57;4.13;;;2.10;;
13706;SDS011;6925;47.816;13.072;2022-08-01T10:07:26;5.28;;;2.10;;
13706;SDS011;6925;47.816;13.072;2022-08-01T10:09:53;4.90;;;2.20;;
13706;SDS011;6925;47.816;13.072;2022-08-01T10:12:25;3.10;;;1.98;;
13706;SDS011;6925;47.816;13.072;2022-08-01T10:14:54;3.50;;;2.05;;
13706;SDS011;6925;47.816;13.072;2022-08-01T10:17:28;3.90;;;1.90;;
13706;SDS011;6925;47.816;13.072;2022-08-01T10:22:37;3.83;;;1.88;;
13706;SDS011;6925;47.816;13.072;2022-08-01T10:32:53;3.72;;;1.88;;
13706;SDS011;6925;47.816;13.072;2022-08-01T10:35:42;3.08;;;1.85;;
13706;SDS011;6925;47.816;13.072;2022-08-01T10:38:16;3.85;;;1.83;;
13706;SDS011;6925;47.816;13.072;2022-08-01T10:40:43;3.35;;;1.83;;
13706;SDS011;6925;47.816;13.072;2022-08-01T10:43:15;2.83;;;1.55;;
13706;SDS011;6925;47.816;13.072;2022-08-01T10:45:43;3.15;;;1.75;;
13706;SDS011;6925;47.816;13.072;2022-08-01T10:48:12;3.47;;;1.80;;
13706;SDS011;6925;47.816;13.072;2022-08-01T10:50:46;3.63;;;1.95;;
13706;SDS011;6925;47.816;13.072;2022-08-01T10:53:16;3.55;;;1.77;;
13706;SDS011;6925;47.816;13.072;2022-08-01T10:55:45;3.75;;;1.73;;
13706;SDS011;6925;47.816;13.072;2022-08-01T10:58:20;3.50;;;1.77;;
13706;SDS011;6925;47.816;13.072;2022-08-01T11:00:49;3.30;;;1.80;;
13706;SDS011;6925;47.816;13.072;2022-08-01T11:03:42;3.60;;;1.38;;
13706;SDS011;6925;47.816;13.072;2022-08-01T11:06:17;3.75;;;1.63;;
13706;SDS011;6925;47.816;13.072;2022-08-01T11:08:50;5.45;;;1.80;;
13706;SDS011;6925;47.816;13.072;2022-08-01T11:11:19;3.92;;;1.50;;
13706;SDS011;6925;47.816;13.072;2022-08-01T11:14:02;4.60;;;1.70;;
13706;SDS011;6925;47.816;13.072;2022-08-01T11:16:37;3.38;;;1.60;;
13706;SDS011;6925;47.816;13.072;2022-08-01T11:19:06;3.03;;;1.30;;
13706;SDS011;6925;47.816;13.072;2022-08-01T11:27:27;2.63;;;1.40;;
13706;SDS011;6925;47.816;13.072;2022-08-01T11:41:42;5.03;;;1.67;;
13706;SDS011;6925;47.816;13.072;2022-08-01T12:00:04;3.50;;;1.30;;
13706;SDS011;6925;47.816;13.072;2022-08-01T12:02:44;3.05;;;1.13;;
13706;SDS011;6925;47.816;13.072;2022-08-01T12:08:27;2.40;;;1.27;;
13706;SDS011;6925;47.816;13.072;2022-08-01T12:42:12;2.35;;;1.13;;
13706;SDS011;6925;47.816;13.072;2022-08-01T13:01:11;2.33;;;1.30;;
13706;SDS011;6925;47.816;13.072;2022-08-01T13:04:06;2.95;;;1.20;;
13706;SDS011;6925;47.816;13.072;2022-08-01T13:09:54;2.88;;;1.42;;
13706;SDS011;6925;47.816;13.072;2022-08-01T13:12:38;1.92;;;1.05;;
13706;SDS011;6925;47.816;13.072;2022-08-01T13:18:59;1.83;;;1.00;;
13706;SDS011;6925;47.816;13.072;2022-08-01T13:21:36;2.45;;;1.20;;
13706;SDS011;6925;47.816;13.072;2022-08-01T13:24:14;3.85;;;1.63;;
13706;SDS011;6925;47.816;13.072;2022-08-01T13:26:51;3.63;;;1.23;;
13706;SDS011;6925;47.816;13.072;2022-08-01T13:29:39;3.05;;;1.25;;
13706;SDS011;6925;47.816;13.072;2022-08-01T13:32:22;3.42;;;1.60;;
13706;SDS011;6925;47.816;13.072;2022-08-01T13:35:06;3.42;;;1.33;;
13706;SDS011;6925;47.816;13.072;2022-08-01T13:38:09;3.38;;;1.08;;
13706;SDS011;6925;47.816;13.072;2022-08-01T13:40:37;3.97;;;1.45;;
13706;SDS011;6925;47.816;13.072;2022-08-01T13:43:05;3.38;;;1.60;;
13706;SDS011;6925;47.816;13.072;2022-08-01T13:45:35;5.22;;;1.60;;
13706;SDS011;6925;47.816;13.072;2022-08-01T13:48:06;4.40;;;1.40;;
13706;SDS011;6925;47.816;13.072;2022-08-01T13:50:38;3.47;;;1.73;;
13706;SDS011;6925;47.816;13.072;2022-08-01T13:53:05;3.28;;;1.45;;
13706;SDS011;6925;47.816;13.072;2022-08-01T13:55:34;3.10;;;1.50;;
13706;SDS011;6925;47.816;13.072;2022-08-01T13:58:02;4.55;;;1.35;;
13706;SDS011;6925;47.816;13.072;2022-08-01T14:00:40;2.78;;;1.42;;
13706;SDS011;6925;47.816;13.072;2022-08-01T14:03:07;2.97;;;1.60;;
13706;SDS011;6925;47.816;13.072;2022-08-01T14:05:40;3.10;;;1.65;;
13706;SDS011;6925;47.816;13.072;2022-08-01T14:08:08;5.38;;;1.65;;
13706;SDS011;6925;47.816;13.072;2022-08-01T14:10:35;2.40;;;1.30;;
13706;SDS011;6925;47.816;13.072;2022-08-01T14:13:03;3.30;;;1.67;;
13706;SDS011;6925;47.816;13.072;2022-08-01T14:15:30;2.50;;;1.45;;
13706;SDS011;6925;47.816;13.072;2022-08-01T14:17:58;3.03;;;1.45;;
13706;SDS011;6925;47.816;13.072;2022-08-01T14:20:26;3.67;;;1.60;;
13706;SDS011;6925;47.816;13.072;2022-08-01T14:32:15;3.25;;;1.50;;
13706;SDS011;6925;47.816;13.072;2022-08-01T14:34:56;3.22;;;1.23;;
13706;SDS011;6925;47.816;13.072;2022-08-01T14:37:28;3.85;;;1.45;;
13706;SDS011;6925;47.816;13.072;2022-08-01T14:40:02;3.90;;;1.70;;
13706;SDS011;6925;47.816;13.072;2022-08-01T14:42:46;3.35;;;1.50;;
13706;SDS011;6925;47.816;13.072;2022-08-01T14:45:32;3.88;;;1.60;;
13706;SDS011;6925;47.816;13.072;2022-08-01T14:48:06;2.92;;;1.55;;
13706;SDS011;6925;47.816;13.072;2022-08-01T14:50:35;4.30;;;1.50;;
13706;SDS011;6925;47.816;13.072;2022-08-01T14:53:03;3.15;;;1.50;;
13706;SDS011;6925;47.816;13.072;2022-08-01T14:55:32;4.22;;;1.42;;
13706;SDS011;6925;47.816;13.072;2022-08-01T14:58:16;4.47;;;1.73;;
13706;SDS011;6925;47.816;13.072;2022-08-01T15:07:26;3.45;;;1.30;;
13706;SDS011;6925;47.816;13.072;2022-08-01T15:09:53;2.25;;;1.25;;
13706;SDS011;6925;47.816;13.072;2022-08-01T15:12:22;4.13;;;1.75;;
13706;SDS011;6925;47.816;13.072;2022-08-01T15:14:49;3.22;;;1.60;;
13706;SDS011;6925;47.816;13.072;2022-08-01T15:17:31;5.63;;;1.70;;
13706;SDS011;6925;47.816;13.072;2022-08-01T15:20:02;3.30;;;1.38;;
13706;SDS011;6925;47.816;13.072;2022-08-01T15:22:34;5.10;;;1.50;;
13706;SDS011;6925;47.816;13.072;2022-08-01T15:25:04;4.28;;;1.42;;
13706;SDS011;6925;47.816;13.072;2022-08-01T15:27:32;5.85;;;1.55;;
13706;SDS011;6925;47.816;13.072;2022-08-01T15:30:04;4.43;;;1.50;;
13706;SDS011;6925;47.816;13.072;2022-08-01T15:32:33;3.53;;;1.40;;
13706;SDS011;6925;47.816;13.072;2022-08-01T15:35:00;2.38;;;1.23;;
13706;SDS011;6925;47.816;13.072;2022-08-01T15:37:27;4.63;;;1.23;;
13706;SDS011;6925;47.816;13.072;2022-08-01T15:39:59;3.28;;;1.33;;
13706;SDS011;6925;47.816;13.072;2022-08-01T15:42:27;5.82;;;1.30;;
13706;SDS011;6925;47.816;13.072;2022-08-01T15:44:54;3.22;;;1.23;;
13706;SDS011;6925;47.816;13.072;2022-08-01T15:47:29;2.40;;;1.20;;
13706;SDS011;6925;47.816;13.072;2022-08-01T15:50:10;3.13;;;1.33;;
13706;SDS011;6925;47.816;13.072;2022-08-01T15:52:38;2.97;;;1.30;;
13706;SDS011;6925;47.816;13.072;2022-08-01T15:58:19;4.13;;;1.20;;
13706;SDS011;6925;47.816;13.072;2022-08-01T16:00:47;3.35;;;1.35;;
13706;SDS011;6925;47.816;13.072;2022-08-01T16:03:16;2.83;;;1.30;;
13706;SDS011;6925;47.816;13.072;2022-08-01T16:05:46;4.25;;;1.15;;
13706;SDS011;6925;47.816;13.072;2022-08-01T16:08:15;2.55;;;1.45;;
13706;SDS011;6925;47.816;13.072;2022-08-01T16:10:43;3.28;;;1.50;;
13706;SDS011;6925;47.816;13.072;2022-08-01T16:13:17;5.25;;;1.40;;
13706;SDS011;6925;47.816;13.072;2022-08-01T16:19:44;4.35;;;1.30;;
13706;SDS011;6925;47.816;13.072;2022-08-01T16:22:14;7.78;;;1.60;;
13706;SDS011;6925;47.816;13.072;2022-08-01T16:24:44;2.80;;;1.50;;
13706;SDS011;6925;47.816;13.072;2022-08-01T16:27:11;3.67;;;1.17;;
13706;SDS011;6925;47.816;13.072;2022-08-01T16:29:54;2.97;;;1.33;;
13706;SDS011;6925;47.816;13.072;2022-08-01T16:32:24;3.15;;;1.10;;
13706;SDS011;6925;47.816;13.072;2022-08-01T16:37:43;3.03;;;1.40;;
13706;SDS011;6925;47.816;13.072;2022-08-01T16:40:24;4.85;;;1.45;;
13706;SDS011;6925;47.816;13.072;2022-08-01T16:43:06;3.08;;;1.33;;
13706;SDS011;6925;47.816;13.072;2022-08-01T16:45:47;3.30;;;1.55;;
13706;SDS011;6925;47.816;13.072;2022-08-01T16:48:15;3.95;;;1.10;;
13706;SDS011;6925;47.816;13.072;2022-08-01T16:50:51;3.55;;;1.05;;
13706;SDS011;6925;47.816;13.072;2022-08-01T16:53:19;3.67;;;1.10;;
13706;SDS011;6925;47.816;13.072;2022-08-01T16:55:49;3.13;;;1.23;;
13706;SDS011;6925;47.816;13.072;2022-08-01T16:58:30;3.08;;;1.20;;
13706;SDS011;6925;47.816;13.072;2022-08-01T17:00:59;3.05;;;1.23;;
13706;SDS011;6925;47.816;13.072;2022-08-01T17:03:27;2.53;;;1.25;;
13706;SDS011;6925;47.816;13.072;2022-08-01T17:05:57;2.13;;;1.10;;
13706;SDS011;6925;47.816;13.072;2022-08-01T17:08:25;2.30;;;1.00;;
13706;SDS011;6925;47.816;13.072;2022-08-01T17:10:54;2.85;;;1.50;;
13706;SDS011;6925;47.816;13.072;2022-08-01T17:13:23;2.78;;;1.25;;
13706;SDS011;6925;47.816;13.072;2022-08-01T17:16:04;2.17;;;1.00;;
13706;SDS011;6925;47.816;13.072;2022-08-01T17:18:45;3.95;;;1.35;;
13706;SDS011;6925;47.816;13.072;2022-08-01T17:21:14;3.45;;;1.27;;
13706;SDS011;6925;47.816;13.072;2022-08-01T17:23:42;5.03;;;1.38;;
13706;SDS011;6925;47.816;13.072;2022-08-01T17:26:11;3.25;;;1.33;;
13706;SDS011;6925;47.816;13.072;2022-08-01T17:28:38;3.70;;;1.48;;
13706;SDS011;6925;47.816;13.072;2022-08-01T17:31:14;2.30;;;1.20;;
13706;SDS011;6925;47.816;13.072;2022-08-01T17:37:43;2.80;;;1.17;;
13706;SDS011;6925;47.816;13.072;2022-08-01T17:47:03;2.10;;;1.20;;
13706;SDS011;6925;47.816;13.072;2022-08-01T17:49:45;3.55;;;1.52;;
13706;SDS011;6925;47.816;13.072;2022-08-01T17:52:26;2.88;;;1.15;;
13706;SDS011;6925;47.816;13.072;2022-08-01T17:55:15;4.82;;;1.65;;
13706;SDS011;6925;47.816;13.072;2022-08-01T17:57:57;3.95;;;1.42;;
13706;SDS011;6925;47.816;13.072;2022-08-01T18:14:30;2.60;;;1.40;;
13706;SDS011;6925;47.816;13.072;2022-08-01T18:17:11;4.35;;;1.40;;
13706;SDS011;6925;47.816;13.072;2022-08-01T18:19:40;4.05;;;1.40;;
13706;SDS011;6925;47.816;13.072;2022-08-01T18:22:11;3.75;;;1.30;;
13706;SDS011;6925;47.816;13.072;2022-08-01T18:28:11;5.25;;;1.40;;
13706;SDS011;6925;47.816;13.072;2022-08-01T18:34:09;2.33;;;1.10;;
13706;SDS011;6925;47.816;13.072;2022-08-01T18:36:38;4.78;;;1.30;;
13706;SDS011;6925;47.816;13.072;2022-08-01T18:42:15;2.47;;;1.15;;
13706;SDS011;6925;47.816;13.072;2022-08-01T18:44:44;3.72;;;1.33;;
13706;SDS011;6925;47.816;13.072;2022-08-01T18:47:17;4.35;;;1.52;;
13706;SDS011;6925;47.816;13.072;2022-08-01T18:49:46;2.50;;;1.20;;
13706;SDS011;6925;47.816;13.072;2022-08-01T18:52:14;4.68;;;1.30;;
13706;SDS011;6925;47.816;13.072;2022-08-01T18:54:41;2.70;;;1.23;;
13706;SDS011;6925;47.816;13.072;2022-08-01T18:57:08;3.50;;;1.50;;
13706;SDS011;6925;47.816;13.072;2022-08-01T18:59:36;3.78;;;1.50;;
13706;SDS011;6925;47.816;13.072;2022-08-01T19:02:03;2.50;;;1.20;;
13706;SDS011;6925;47.816;13.072;2022-08-01T19:04:31;3.50;;;1.50;;
13706;SDS011;6925;47.816;13.072;2022-08-01T19:07:00;5.18;;;1.33;;
13706;SDS011;6925;47.816;13.072;2022-08-01T19:09:28;2.40;;;1.00;;
13706;SDS011;6925;47.816;13.072;2022-08-01T19:11:55;4.03;;;1.20;;
13706;SDS011;6925;47.816;13.072;2022-08-01T19:14:23;3.05;;;1.23;;
13706;SDS011;6925;47.816;13.072;2022-08-01T19:16:50;6.05;;;1.27;;
13706;SDS011;6925;47.816;13.072;2022-08-01T19:19:17;3.90;;;1.30;;
13706;SDS011;6925;47.816;13.072;2022-08-01T19:21:45;3.58;;;1.10;;
13706;SDS011;6925;47.816;13.072;2022-08-01T19:24:14;4.40;;;1.20;;
13706;SDS011;6925;47.816;13.072;2022-08-01T19:26:47;4.03;;;1.35;;
13706;SDS011;6925;47.816;13.072;2022-08-01T19:29:17;4.50;;;1.45;;
13706;SDS011;6925;47.816;13.072;2022-08-01T19:31:50;3.50;;;1.42;;
13706;SDS011;6925;47.816;13.072;2022-08-01T19:34:20;3.72;;;1.67;;
13706;SDS011;6925;47.816;13.072;2022-08-01T19:36:50;2.10;;;1.20;;
13706;SDS011;6925;47.816;13.072;2022-08-01T19:39:22;3.92;;;1.55;;
13706;SDS011;6925;47.816;13.072;2022-08-01T19:41:51;4.32;;;1.30;;
13706;SDS011;6925;47.816;13.072;2022-08-01T19:44:21;4.15;;;1.50;;
13706;SDS011;6925;47.816;13.072;2022-08-01T19:47:13;2.92;;;1.33;;
13706;SDS011;6925;47.816;13.072;2022-08-01T19:50:12;5.15;;;1.48;;